sensor_id;sensor_type;location;lat;lon;timestamp;pressure;altitude;pressure_sealevel;temperature;humidity
69153;BME280;56261;51.580;4.578;2023-03-01T00:01:50;103286.81;;;-0.31;100.00
69153;BME280;56261;51.580;4.578;2023-03-01T00:04:15;103291.25;;;-0.33;100.00
69153;BME280;56261;51.580;4.578;2023-03-01T00:06:42;103299.22;;;-0.38;100.00
69153;BME280;56261;51.580;4.578;2023-03-01T00:09:11;103293.81;;;-0.32;100.00
69153;BME280;56261;51.580;4.578;2023-03-01T00:11:37;103292.09;;;-0.33;100.00
69153;BME280;56261;51.580;4.578;2023-03-01T00:14:03;103290.34;;;-0.34;100.00
69153;BME280;56261;51.580;4.578;2023-03-01T00:16:37;103295.56;;;-0.32;100.00
69153;BME280;56261;51.580;4.578;2023-03-01T00:19:05;103298.16;;;-0.31;100.00
69153;BME280;56261;51.580;4.578;2023-03-01T00:21:30;103298.16;;;-0.31;100.00
69153;BME280;56261;51.580;4.578;2023-03-01T00:23:56;103297.50;;;-0.40;100.00
69153;BME280;56261;51.580;4.578;2023-03-01T00:26:23;103300.19;;;-0.42;100.00
69153;BME280;56261;51.580;4.578;2023-03-01T00:28:49;103295.78;;;-0.40;100.00
69153;BME280;56261;51.580;4.578;2023-03-01T00:31:17;103303.44;;;-0.32;100.00
69153;BME280;56261;51.580;4.578;2023-03-01T00:33:43;103301.19;;;-0.48;100.00
69153;BME280;56261;51.580;4.578;2023-03-01T00:36:09;103305.44;;;-0.42;100.00
69153;BME280;56261;51.580;4.578;2023-03-01T00:38:39;103293.06;;;-0.37;100.00
69153;BME280;56261;51.580;4.578;2023-03-01T00:41:06;103303.59;;;-0.38;100.00
69153;BME280;56261;51.580;4.578;2023-03-01T00:43:31;103298.31;;;-0.37;100.00
69153;BME280;56261;51.580;4.578;2023-03-01T00:46:02;103287.84;;;-0.38;100.00
69153;BME280;56261;51.580;4.578;2023-03-01T00:48:28;103298.44;;;-0.42;100.00
69153;BME280;56261;51.580;4.578;2023-03-01T00:50:53;103292.16;;;-0.36;100.00
69153;BME280;56261;51.580;4.578;2023-03-01T00:53:19;103298.56;;;-0.48;100.00
69153;BME280;56261;51.580;4.578;2023-03-01T00:55:44;103282.34;;;-0.64;100.00
69153;BME280;56261;51.580;4.578;2023-03-01T00:58:09;103292.91;;;-0.67;100.00
69153;BME280;56261;51.580;4.578;2023-03-01T01:00:35;103300.81;;;-0.68;100.00
69153;BME280;56261;51.580;4.578;2023-03-01T01:03:01;103300.06;;;-0.73;100.00
69153;BME280;56261;51.580;4.578;2023-03-01T01:05:26;103292.16;;;-0.72;100.00
69153;BME280;56261;51.580;4.578;2023-03-01T01:07:51;103290.34;;;-0.70;100.00
69153;BME280;56261;51.580;4.578;2023-03-01T01:10:17;103287.69;;;-0.67;100.00
69153;BME280;56261;51.580;4.578;2023-03-01T01:12:46;103286.63;;;-0.59;100.00
69153;BME280;56261;51.580;4.578;2023-03-01T01:15:11;103274.56;;;-0.67;100.00
69153;BME280;56261;51.580;4.578;2023-03-01T01:17:39;103277.94;;;-0.61;100.00
69153;BME280;56261;51.580;4.578;2023-03-01T01:20:05;103279.00;;;-0.70;100.00
69153;BME280;56261;51.580;4.578;2023-03-01T01:22:31;103274.63;;;-0.70;100.00
69153;BME280;56261;51.580;4.578;2023-03-01T01:24:57;103272.06;;;-0.71;100.00
69153;BME280;56261;51.580;4.578;2023-03-01T01:27:22;103261.53;;;-0.70;100.00
69153;BME280;56261;51.580;4.578;2023-03-01T01:29:48;103256.59;;;-0.82;100.00
69153;BME280;56261;51.580;4.578;2023-03-01T01:32:13;103253.06;;;-0.81;100.00
69153;BME280;56261;51.580;4.578;2023-03-01T01:34:39;103257.47;;;-0.83;100.00
69153;BME280;56261;51.580;4.578;2023-03-01T01:37:04;103244.56;;;-0.91;100.00
69153;BME280;56261;51.580;4.578;2023-03-01T01:39:33;103253.06;;;-0.81;100.00
69153;BME280;56261;51.580;4.578;2023-03-01T01:42:00;103235.03;;;-0.93;100.00
69153;BME280;56261;51.580;4.578;2023-03-01T01:44:27;103238.38;;;-0.87;100.00
69153;BME280;56261;51.580;4.578;2023-03-01T01:46:54;103241.00;;;-0.88;100.00
69153;BME280;56261;51.580;4.578;2023-03-01T01:49:38;103235.88;;;-0.93;100.00
69153;BME280;56261;51.580;4.578;2023-03-01T01:55:07;103224.72;;;-1.01;100.00
69153;BME280;56261;51.580;4.578;2023-03-01T01:57:37;103228.25;;;-1.02;100.00
69153;BME280;56261;51.580;4.578;2023-03-01T02:00:07;103223.78;;;-0.98;100.00
69153;BME280;56261;51.580;4.578;2023-03-01T02:02:34;103228.97;;;-0.95;100.00
69153;BME280;56261;51.580;4.578;2023-03-01T02:05:14;103221.25;;;-1.01;100.00
69153;BME280;56261;51.580;4.578;2023-03-01T02:07:43;103215.28;;;-1.08;100.00
69153;BME280;56261;51.580;4.578;2023-03-01T02:10:09;103229.22;;;-1.08;100.00
69153;BME280;56261;51.580;4.578;2023-03-01T02:12:36;103209.22;;;-1.10;100.00
69153;BME280;56261;51.580;4.578;2023-03-01T02:15:02;103210.16;;;-1.13;100.00
69153;BME280;56261;51.580;4.578;2023-03-01T02:17:28;103213.00;;;-1.23;100.00
69153;BME280;56261;51.580;4.578;2023-03-01T02:22:44;103201.16;;;-1.38;100.00
69153;BME280;56261;51.580;4.578;2023-03-01T02:27:51;103200.84;;;-1.26;100.00
69153;BME280;56261;51.580;4.578;2023-03-01T02:30:21;103202.59;;;-1.25;100.00
69153;BME280;56261;51.580;4.578;2023-03-01T02:32:47;103201.69;;;-1.24;100.00
69153;BME280;56261;51.580;4.578;2023-03-01T02:35:15;103194.78;;;-1.28;100.00
69153;BME280;56261;51.580;4.578;2023-03-01T02:37:42;103204.22;;;-1.21;100.00
69153;BME280;56261;51.580;4.578;2023-03-01T02:40:11;103187.97;;;-1.35;100.00
69153;BME280;56261;51.580;4.578;2023-03-01T02:42:47;103196.44;;;-1.22;100.00
69153;BME280;56261;51.580;4.578;2023-03-01T02:45:14;103188.59;;;-1.24;100.00
69153;BME280;56261;51.580;4.578;2023-03-01T02:47:40;103198.16;;;-1.23;100.00
69153;BME280;56261;51.580;4.578;2023-03-01T02:55:22;103203.38;;;-1.23;100.00
69153;BME280;56261;51.580;4.578;2023-03-01T02:57:48;103205.97;;;-1.20;100.00
69153;BME280;56261;51.580;4.578;2023-03-01T03:00:26;103203.28;;;-1.18;100.00
69153;BME280;56261;51.580;4.578;2023-03-01T03:02:54;103213.72;;;-1.15;100.00
69153;BME280;56261;51.580;4.578;2023-03-01T03:05:27;103208.53;;;-1.18;100.00
69153;BME280;56261;51.580;4.578;2023-03-01T03:07:53;103209.31;;;-1.13;100.00
69153;BME280;56261;51.580;4.578;2023-03-01T03:10:24;103216.38;;;-1.18;100.00
69153;BME280;56261;51.580;4.578;2023-03-01T03:12:55;103211.25;;;-1.23;100.00
69153;BME280;56261;51.580;4.578;2023-03-01T03:15:21;103204.88;;;-1.11;100.00
69153;BME280;56261;51.580;4.578;2023-03-01T03:17:47;103209.09;;;-1.06;100.00
69153;BME280;56261;51.580;4.578;2023-03-01T03:20:15;103203.81;;;-1.02;100.00
69153;BME280;56261;51.580;4.578;2023-03-01T03:22:48;103199.34;;;-0.99;100.00
69153;BME280;56261;51.580;4.578;2023-03-01T03:25:14;103188.97;;;-1.03;100.00
69153;BME280;56261;51.580;4.578;2023-03-01T03:27:41;103184.78;;;-1.09;100.00
69153;BME280;56261;51.580;4.578;2023-03-01T03:30:10;103177.88;;;-1.13;100.00
69153;BME280;56261;51.580;4.578;2023-03-01T03:32:41;103175.63;;;-1.30;100.00
69153;BME280;56261;51.580;4.578;2023-03-01T03:35:08;103178.94;;;-1.22;100.00
69153;BME280;56261;51.580;4.578;2023-03-01T03:37:43;103167.56;;;-1.21;100.00
69153;BME280;56261;51.580;4.578;2023-03-01T03:40:41;103175.53;;;-1.26;100.00
69153;BME280;56261;51.580;4.578;2023-03-01T03:43:10;103180.88;;;-1.30;100.00
69153;BME280;56261;51.580;4.578;2023-03-01T03:45:37;103167.13;;;-1.38;100.00
69153;BME280;56261;51.580;4.578;2023-03-01T03:48:04;103181.69;;;-1.28;100.00
69153;BME280;56261;51.580;4.578;2023-03-01T03:50:31;103172.91;;;-1.26;100.00
69153;BME280;56261;51.580;4.578;2023-03-01T03:52:59;103166.75;;;-1.23;100.00
69153;BME280;56261;51.580;4.578;2023-03-01T03:55:25;103166.00;;;-1.28;100.00
69153;BME280;56261;51.580;4.578;2023-03-01T03:57:57;103165.28;;;-1.36;100.00
69153;BME280;56261;51.580;4.578;2023-03-01T04:00:23;103173.88;;;-1.30;100.00
69153;BME280;56261;51.580;4.578;2023-03-01T04:02:50;103160.63;;;-1.22;100.00
69153;BME280;56261;51.580;4.578;2023-03-01T04:05:17;103176.31;;;-1.20;100.00
69153;BME280;56261;51.580;4.578;2023-03-01T04:07:43;103172.75;;;-1.18;100.00
69153;BME280;56261;51.580;4.578;2023-03-01T04:10:16;103164.00;;;-1.17;100.00
69153;BME280;56261;51.580;4.578;2023-03-01T04:12:42;103165.75;;;-1.17;100.00
69153;BME280;56261;51.580;4.578;2023-03-01T04:15:09;103167.16;;;-1.02;100.00
69153;BME280;56261;51.580;4.578;2023-03-01T04:17:42;103170.50;;;-0.97;100.00
69153;BME280;56261;51.580;4.578;2023-03-01T04:20:10;103165.50;;;-1.07;100.00
69153;BME280;56261;51.580;4.578;2023-03-01T04:22:38;103163.53;;;-0.98;100.00
69153;BME280;56261;51.580;4.578;2023-03-01T04:25:06;103161.75;;;-0.96;100.00
69153;BME280;56261;51.580;4.578;2023-03-01T04:27:35;103166.97;;;-0.95;100.00
69153;BME280;56261;51.580;4.578;2023-03-01T04:30:02;103160.91;;;-0.98;100.00
69153;BME280;56261;51.580;4.578;2023-03-01T04:32:28;103169.88;;;-1.07;100.00
69153;BME280;56261;51.580;4.578;2023-03-01T04:34:54;103156.69;;;-1.02;100.00
69153;BME280;56261;51.580;4.578;2023-03-01T04:37:19;103167.19;;;-1.04;100.00
69153;BME280;56261;51.580;4.578;2023-03-01T04:39:44;103173.22;;;-1.00;100.00
69153;BME280;56261;51.580;4.578;2023-03-01T04:42:13;103161.94;;;-1.04;100.00
69153;BME280;56261;51.580;4.578;2023-03-01T04:44:39;103166.00;;;-0.92;100.00
69153;BME280;56261;51.580;4.578;2023-03-01T04:47:05;103158.16;;;-0.92;100.00
69153;BME280;56261;51.580;4.578;2023-03-01T04:49:30;103158.63;;;-1.11;100.00
69153;BME280;56261;51.580;4.578;2023-03-01T04:51:56;103148.81;;;-1.02;100.00
69153;BME280;56261;51.580;4.578;2023-03-01T04:54:27;103144.34;;;-0.99;100.00
69153;BME280;56261;51.580;4.578;2023-03-01T04:56:53;103151.59;;;-1.09;100.00
69153;BME280;56261;51.580;4.578;2023-03-01T04:59:19;103141.09;;;-1.07;100.00
69153;BME280;56261;51.580;4.578;2023-03-01T05:01:48;103145.38;;;-1.05;100.00
69153;BME280;56261;51.580;4.578;2023-03-01T05:04:13;103136.75;;;-1.10;100.00
69153;BME280;56261;51.580;4.578;2023-03-01T05:06:39;103125.38;;;-1.07;100.00
69153;BME280;56261;51.580;4.578;2023-03-01T05:09:04;103124.72;;;-1.17;100.00
69153;BME280;56261;51.580;4.578;2023-03-01T05:11:30;103122.91;;;-1.13;100.00
69153;BME280;56261;51.580;4.578;2023-03-01T05:14:01;103116.59;;;-1.06;100.00
69153;BME280;56261;51.580;4.578;2023-03-01T05:16:26;103104.13;;;-0.96;100.00
69153;BME280;56261;51.580;4.578;2023-03-01T05:18:52;103100.06;;;-1.08;100.00
69153;BME280;56261;51.580;4.578;2023-03-01T05:21:17;103106.53;;;-1.23;100.00
69153;BME280;56261;51.580;4.578;2023-03-01T05:23:43;103099.22;;;-1.09;100.00
69153;BME280;56261;51.580;4.578;2023-03-01T05:26:09;103095.50;;;-1.00;100.00
69153;BME280;56261;51.580;4.578;2023-03-01T05:28:34;103099.06;;;-1.02;100.00
69153;BME280;56261;51.580;4.578;2023-03-01T05:31:00;103088.88;;;-1.15;100.00
69153;BME280;56261;51.580;4.578;2023-03-01T05:33:26;103092.31;;;-1.13;100.00
69153;BME280;56261;51.580;4.578;2023-03-01T05:35:52;103093.66;;;-0.96;100.00
69153;BME280;56261;51.580;4.578;2023-03-01T05:38:19;103088.66;;;-1.06;100.00
69153;BME280;56261;51.580;4.578;2023-03-01T05:40:47;103085.53;;;-1.20;100.00
69153;BME280;56261;51.580;4.578;2023-03-01T05:43:15;103092.66;;;-1.25;100.00
69153;BME280;56261;51.580;4.578;2023-03-01T05:45:41;103087.31;;;-1.22;100.00
69153;BME280;56261;51.580;4.578;2023-03-01T05:48:07;103087.41;;;-1.25;100.00
69153;BME280;56261;51.580;4.578;2023-03-01T05:50:36;103086.50;;;-1.24;100.00
69153;BME280;56261;51.580;4.578;2023-03-01T05:53:21;103077.56;;;-1.15;100.00
69153;BME280;56261;51.580;4.578;2023-03-01T05:55:47;103075.88;;;-1.18;100.00
69153;BME280;56261;51.580;4.578;2023-03-01T05:58:17;103062.66;;;-1.13;100.00
69153;BME280;56261;51.580;4.578;2023-03-01T06:00:44;103072.44;;;-1.20;100.00
69153;BME280;56261;51.580;4.578;2023-03-01T06:03:12;103072.59;;;-1.26;100.00
69153;BME280;56261;51.580;4.578;2023-03-01T06:05:39;103077.84;;;-1.28;100.00
69153;BME280;56261;51.580;4.578;2023-03-01T06:08:05;103068.25;;;-1.27;100.00
69153;BME280;56261;51.580;4.578;2023-03-01T06:10:31;103071.16;;;-1.39;100.00
69153;BME280;56261;51.580;4.578;2023-03-01T06:12:57;103079.38;;;-1.55;100.00
69153;BME280;56261;51.580;4.578;2023-03-01T06:15:24;103076.88;;;-1.59;100.00
69153;BME280;56261;51.580;4.578;2023-03-01T06:17:50;103071.94;;;-1.73;100.00
69153;BME280;56261;51.580;4.578;2023-03-01T06:22:41;103084.19;;;-1.74;100.00
69153;BME280;56261;51.580;4.578;2023-03-01T06:25:08;103089.47;;;-1.77;100.00
69153;BME280;56261;51.580;4.578;2023-03-01T06:27:34;103087.88;;;-1.84;100.00
69153;BME280;56261;51.580;4.578;2023-03-01T06:29:59;103086.38;;;-1.94;100.00
69153;BME280;56261;51.580;4.578;2023-03-01T06:32:25;103097.78;;;-1.98;100.00
69153;BME280;56261;51.580;4.578;2023-03-01T06:34:50;103092.72;;;-2.06;100.00
69153;BME280;56261;51.580;4.578;2023-03-01T06:37:16;103095.28;;;-2.03;100.00
69153;BME280;56261;51.580;4.578;2023-03-01T06:39:41;103091.00;;;-2.07;100.00
69153;BME280;56261;51.580;4.578;2023-03-01T06:42:08;103098.09;;;-2.14;100.00
69153;BME280;56261;51.580;4.578;2023-03-01T06:44:35;103098.88;;;-2.10;100.00
69153;BME280;56261;51.580;4.578;2023-03-01T06:47:00;103098.63;;;-1.96;100.00
69153;BME280;56261;51.580;4.578;2023-03-01T06:49:26;103105.56;;;-1.95;100.00
69153;BME280;56261;51.580;4.578;2023-03-01T06:51:51;103085.53;;;-1.96;100.00
69153;BME280;56261;51.580;4.578;2023-03-01T06:54:16;103107.16;;;-1.88;100.00
69153;BME280;56261;51.580;4.578;2023-03-01T06:56:43;103097.38;;;-1.78;100.00
69153;BME280;56261;51.580;4.578;2023-03-01T06:59:11;103097.16;;;-1.69;100.00
69153;BME280;56261;51.580;4.578;2023-03-01T07:01:36;103100.50;;;-1.62;100.00
69153;BME280;56261;51.580;4.578;2023-03-01T07:04:02;103105.75;;;-1.64;100.00
69153;BME280;56261;51.580;4.578;2023-03-01T07:06:27;103100.50;;;-1.64;100.00
69153;BME280;56261;51.580;4.578;2023-03-01T07:08:52;103099.66;;;-1.64;100.00
69153;BME280;56261;51.580;4.578;2023-03-01T07:11:18;103102.16;;;-1.58;100.00
69153;BME280;56261;51.580;4.578;2023-03-01T07:13:43;103099.44;;;-1.55;100.00
69153;BME280;56261;51.580;4.578;2023-03-01T07:16:09;103095.16;;;-1.58;100.00
69153;BME280;56261;51.580;4.578;2023-03-01T07:18:34;103099.16;;;-1.43;100.00
69153;BME280;56261;51.580;4.578;2023-03-01T07:21:11;103090.78;;;-1.21;100.00
69153;BME280;56261;51.580;4.578;2023-03-01T07:23:37;103094.69;;;-1.02;100.00
69153;BME280;56261;51.580;4.578;2023-03-01T07:26:03;103082.03;;;-0.85;100.00
69153;BME280;56261;51.580;4.578;2023-03-01T07:28:28;103077.66;;;-0.53;100.00
69153;BME280;56261;51.580;4.578;2023-03-01T07:30:54;103081.72;;;-0.11;100.00
69153;BME280;56261;51.580;4.578;2023-03-01T07:33:20;103078.94;;;0.51;100.00
69153;BME280;56261;51.580;4.578;2023-03-01T07:35:45;103084.28;;;0.76;100.00
69153;BME280;56261;51.580;4.578;2023-03-01T07:38:11;103065.25;;;1.45;100.00
69153;BME280;56261;51.580;4.578;2023-03-01T07:40:36;103070.88;;;1.83;100.00
69153;BME280;56261;51.580;4.578;2023-03-01T07:43:02;103066.88;;;1.96;100.00
69153;BME280;56261;51.580;4.578;2023-03-01T07:45:27;103071.97;;;2.23;100.00
69153;BME280;56261;51.580;4.578;2023-03-01T07:47:54;103074.31;;;2.31;100.00
69153;BME280;56261;51.580;4.578;2023-03-01T07:50:21;103069.66;;;3.22;100.00
69153;BME280;56261;51.580;4.578;2023-03-01T07:52:48;103081.00;;;2.61;100.00
69153;BME280;56261;51.580;4.578;2023-03-01T07:55:15;103088.56;;;3.32;100.00
69153;BME280;56261;51.580;4.578;2023-03-01T07:57:40;103090.16;;;3.76;100.00
69153;BME280;56261;51.580;4.578;2023-03-01T08:00:07;103092.50;;;3.01;100.00
69153;BME280;56261;51.580;4.578;2023-03-01T08:02:32;103098.69;;;2.58;100.00
69153;BME280;56261;51.580;4.578;2023-03-01T08:04:58;103100.19;;;2.85;100.00
69153;BME280;56261;51.580;4.578;2023-03-01T08:07:23;103108.56;;;2.53;100.00
69153;BME280;56261;51.580;4.578;2023-03-01T08:09:49;103100.53;;;2.78;100.00
69153;BME280;56261;51.580;4.578;2023-03-01T08:12:14;103098.72;;;3.41;100.00
69153;BME280;56261;51.580;4.578;2023-03-01T08:14:41;103105.31;;;4.29;100.00
69153;BME280;56261;51.580;4.578;2023-03-01T08:17:06;103098.16;;;4.12;100.00
69153;BME280;56261;51.580;4.578;2023-03-01T08:19:32;103095.09;;;4.57;100.00
69153;BME280;56261;51.580;4.578;2023-03-01T08:21:58;103103.81;;;4.60;100.00
69153;BME280;56261;51.580;4.578;2023-03-01T08:24:25;103095.44;;;4.32;100.00
69153;BME280;56261;51.580;4.578;2023-03-01T08:26:50;103097.09;;;4.89;100.00
69153;BME280;56261;51.580;4.578;2023-03-01T08:29:16;103090.19;;;4.86;100.00
69153;BME280;56261;51.580;4.578;2023-03-01T08:31:41;103087.84;;;5.15;100.00
69153;BME280;56261;51.580;4.578;2023-03-01T08:34:10;103084.41;;;5.30;100.00
69153;BME280;56261;51.580;4.578;2023-03-01T08:36:38;103074.00;;;5.27;100.00
69153;BME280;56261;51.580;4.578;2023-03-01T08:39:05;103093.28;;;3.84;100.00
69153;BME280;56261;51.580;4.578;2023-03-01T08:41:31;103076.22;;;5.52;100.00
69153;BME280;56261;51.580;4.578;2023-03-01T08:43:56;103073.53;;;5.36;100.00
69153;BME280;56261;51.580;4.578;2023-03-01T08:46:29;103071.69;;;5.04;100.00
69153;BME280;56261;51.580;4.578;2023-03-01T08:48:55;103079.91;;;4.63;100.00
69153;BME280;56261;51.580;4.578;2023-03-01T08:51:22;103056.56;;;4.53;100.00
69153;BME280;56261;51.580;4.578;2023-03-01T08:53:48;103076.59;;;4.40;100.00
69153;BME280;56261;51.580;4.578;2023-03-01T08:56:14;103062.66;;;4.55;100.00
69153;BME280;56261;51.580;4.578;2023-03-01T08:58:42;103067.41;;;5.18;100.00
69153;BME280;56261;51.580;4.578;2023-03-01T09:01:09;103053.16;;;4.86;100.00
69153;BME280;56261;51.580;4.578;2023-03-01T09:03:35;103054.72;;;4.90;100.00
69153;BME280;56261;51.580;4.578;2023-03-01T09:06:01;103051.53;;;5.01;100.00
69153;BME280;56261;51.580;4.578;2023-03-01T09:08:26;103046.00;;;5.06;100.00
69153;BME280;56261;51.580;4.578;2023-03-01T09:10:52;103042.09;;;5.13;100.00
69153;BME280;56261;51.580;4.578;2023-03-01T09:13:17;103040.19;;;5.50;100.00
69153;BME280;56261;51.580;4.578;2023-03-01T09:15:43;103031.88;;;6.37;100.00
69153;BME280;56261;51.580;4.578;2023-03-01T09:18:08;103038.78;;;5.92;100.00
69153;BME280;56261;51.580;4.578;2023-03-01T09:20:34;103033.63;;;5.24;100.00
69153;BME280;56261;51.580;4.578;2023-03-01T09:22:59;103012.75;;;5.51;100.00
69153;BME280;56261;51.580;4.578;2023-03-01T09:25:25;103025.44;;;5.11;100.00
69153;BME280;56261;51.580;4.578;2023-03-01T09:27:51;103031.25;;;5.35;100.00
69153;BME280;56261;51.580;4.578;2023-03-01T09:30:20;103023.69;;;4.94;100.00
69153;BME280;56261;51.580;4.578;2023-03-01T09:32:46;103017.56;;;4.76;100.00
69153;BME280;56261;51.580;4.578;2023-03-01T09:35:11;103017.78;;;4.89;100.00
69153;BME280;56261;51.580;4.578;2023-03-01T09:37:37;103002.19;;;5.51;100.00
69153;BME280;56261;51.580;4.578;2023-03-01T09:40:08;103010.25;;;5.81;100.00
69153;BME280;56261;51.580;4.578;2023-03-01T09:45:38;102996.06;;;6.30;100.00
69153;BME280;56261;51.580;4.578;2023-03-01T09:48:06;102992.22;;;6.50;100.00
69153;BME280;56261;51.580;4.578;2023-03-01T09:50:39;102992.81;;;5.61;100.00
69153;BME280;56261;51.580;4.578;2023-03-01T09:53:10;102978.53;;;6.27;100.00
69153;BME280;56261;51.580;4.578;2023-03-01T10:06:45;102985.16;;;5.23;100.00
69153;BME280;56261;51.580;4.578;2023-03-01T10:09:17;102994.13;;;5.03;100.00
69153;BME280;56261;51.580;4.578;2023-03-01T10:11:46;102991.25;;;5.08;100.00
69153;BME280;56261;51.580;4.578;2023-03-01T10:14:30;102998.06;;;5.29;100.00
69153;BME280;56261;51.580;4.578;2023-03-01T10:17:01;102991.00;;;5.12;100.00
69153;BME280;56261;51.580;4.578;2023-03-01T10:19:43;102996.00;;;5.01;100.00
69153;BME280;56261;51.580;4.578;2023-03-01T10:22:15;102988.31;;;4.96;100.00
69153;BME280;56261;51.580;4.578;2023-03-01T10:24:41;102980.38;;;4.96;100.00
69153;BME280;56261;51.580;4.578;2023-03-01T10:30:14;102974.94;;;5.49;100.00
69153;BME280;56261;51.580;4.578;2023-03-01T10:32:43;102971.16;;;5.37;100.00
69153;BME280;56261;51.580;4.578;2023-03-01T10:35:27;102963.47;;;5.32;100.00
69153;BME280;56261;51.580;4.578;2023-03-01T10:38:07;102966.97;;;5.33;100.00
69153;BME280;56261;51.580;4.578;2023-03-01T10:40:34;102965.94;;;5.19;100.00
69153;BME280;56261;51.580;4.578;2023-03-01T10:43:03;102957.31;;;5.16;100.00
69153;BME280;56261;51.580;4.578;2023-03-01T10:48:22;102966.94;;;5.82;100.00
69153;BME280;56261;51.580;4.578;2023-03-01T10:51:12;102964.63;;;5.76;100.00
69153;BME280;56261;51.580;4.578;2023-03-01T10:53:45;102959.50;;;5.41;100.00
69153;BME280;56261;51.580;4.578;2023-03-01T10:56:14;102946.84;;;5.62;100.00
69153;BME280;56261;51.580;4.578;2023-03-01T10:59:01;102946.34;;;5.55;100.00
69153;BME280;56261;51.580;4.578;2023-03-01T11:01:32;102942.50;;;5.61;100.00
69153;BME280;56261;51.580;4.578;2023-03-01T11:04:10;102933.09;;;5.55;100.00
69153;BME280;56261;51.580;4.578;2023-03-01T11:06:38;102925.50;;;5.81;100.00
69153;BME280;56261;51.580;4.578;2023-03-01T11:09:20;102929.34;;;5.75;100.00
69153;BME280;56261;51.580;4.578;2023-03-01T11:11:46;102926.53;;;5.47;100.00
69153;BME280;56261;51.580;4.578;2023-03-01T11:14:20;102926.97;;;5.39;100.00
69153;BME280;56261;51.580;4.578;2023-03-01T11:19:38;102903.03;;;5.88;100.00
69153;BME280;56261;51.580;4.578;2023-03-01T11:22:32;102906.72;;;5.86;100.00
69153;BME280;56261;51.580;4.578;2023-03-01T11:25:00;102895.66;;;6.09;100.00
69153;BME280;56261;51.580;4.578;2023-03-01T11:27:29;102898.09;;;5.82;98.67
69153;BME280;56261;51.580;4.578;2023-03-01T11:30:04;102894.53;;;5.67;96.89
69153;BME280;56261;51.580;4.578;2023-03-01T11:32:42;102895.78;;;5.92;99.09
69153;BME280;56261;51.580;4.578;2023-03-01T11:35:18;102896.78;;;5.89;98.54
69153;BME280;56261;51.580;4.578;2023-03-01T11:38:09;102902.97;;;5.74;98.00
69153;BME280;56261;51.580;4.578;2023-03-01T11:40:49;102869.25;;;5.61;99.76
69153;BME280;56261;51.580;4.578;2023-03-01T11:49:06;102877.38;;;6.05;99.41
69153;BME280;56261;51.580;4.578;2023-03-01T12:06:26;102879.69;;;6.11;98.58
69153;BME280;56261;51.580;4.578;2023-03-01T12:17:15;102880.41;;;6.29;93.48
69153;BME280;56261;51.580;4.578;2023-03-01T12:25:26;102866.22;;;6.58;90.10
69153;BME280;56261;51.580;4.578;2023-03-01T12:33:50;102851.06;;;6.32;92.24
69153;BME280;56261;51.580;4.578;2023-03-01T12:37:20;102839.72;;;6.58;92.16
69153;BME280;56261;51.580;4.578;2023-03-01T12:39:55;102840.28;;;6.35;93.12
69153;BME280;56261;51.580;4.578;2023-03-01T12:48:31;102833.06;;;5.92;95.25
69153;BME280;56261;51.580;4.578;2023-03-01T12:51:02;102819.03;;;6.20;93.55
69153;BME280;56261;51.580;4.578;2023-03-01T12:53:36;102819.44;;;6.29;94.55
69153;BME280;56261;51.580;4.578;2023-03-01T12:56:12;102820.88;;;6.63;91.86
69153;BME280;56261;51.580;4.578;2023-03-01T13:07:35;102812.66;;;6.39;94.52
69153;BME280;56261;51.580;4.578;2023-03-01T13:10:06;102800.63;;;6.33;95.53
69153;BME280;56261;51.580;4.578;2023-03-01T13:17:50;102780.38;;;6.47;98.68
69153;BME280;56261;51.580;4.578;2023-03-01T13:20:18;102781.69;;;6.39;95.29
69153;BME280;56261;51.580;4.578;2023-03-01T13:22:46;102778.66;;;6.60;94.35
69153;BME280;56261;51.580;4.578;2023-03-01T13:25:21;102775.72;;;6.64;92.44
69153;BME280;56261;51.580;4.578;2023-03-01T13:27:47;102779.41;;;6.62;90.88
69153;BME280;56261;51.580;4.578;2023-03-01T13:35:53;102773.63;;;6.70;90.74
69153;BME280;56261;51.580;4.578;2023-03-01T13:41:03;102763.91;;;6.41;88.59
69153;BME280;56261;51.580;4.578;2023-03-01T13:43:31;102760.06;;;6.89;90.47
69153;BME280;56261;51.580;4.578;2023-03-01T13:45:58;102766.66;;;6.96;86.38
69153;BME280;56261;51.580;4.578;2023-03-01T13:48:27;102764.91;;;6.82;87.30
69153;BME280;56261;51.580;4.578;2023-03-01T13:51:03;102759.00;;;6.91;88.10
69153;BME280;56261;51.580;4.578;2023-03-01T13:53:32;102750.97;;;6.78;89.14
69153;BME280;56261;51.580;4.578;2023-03-01T13:56:03;102751.00;;;6.64;86.54
69153;BME280;56261;51.580;4.578;2023-03-01T13:58:47;102748.81;;;6.71;88.28
69153;BME280;56261;51.580;4.578;2023-03-01T14:01:33;102746.56;;;6.64;87.43
69153;BME280;56261;51.580;4.578;2023-03-01T14:03:59;102734.13;;;6.79;88.83
69153;BME280;56261;51.580;4.578;2023-03-01T14:06:25;102737.25;;;6.86;89.35
69153;BME280;56261;51.580;4.578;2023-03-01T14:09:01;102746.28;;;6.96;87.67
69153;BME280;56261;51.580;4.578;2023-03-01T14:11:37;102725.66;;;6.87;88.20
69153;BME280;56261;51.580;4.578;2023-03-01T14:19:29;102702.16;;;7.22;89.44
69153;BME280;56261;51.580;4.578;2023-03-01T14:22:20;102708.00;;;7.27;85.31
69153;BME280;56261;51.580;4.578;2023-03-01T14:24:50;102690.53;;;7.11;87.09
69153;BME280;56261;51.580;4.578;2023-03-01T14:27:16;102684.94;;;7.15;87.71
69153;BME280;56261;51.580;4.578;2023-03-01T14:29:42;102685.69;;;7.17;86.66
69153;BME280;56261;51.580;4.578;2023-03-01T14:32:19;102673.22;;;7.05;83.91
69153;BME280;56261;51.580;4.578;2023-03-01T14:34:48;102668.13;;;7.02;87.00
69153;BME280;56261;51.580;4.578;2023-03-01T14:39:51;102661.84;;;6.90;83.14
69153;BME280;56261;51.580;4.578;2023-03-01T14:42:18;102662.81;;;7.02;82.91
69153;BME280;56261;51.580;4.578;2023-03-01T14:44:50;102662.28;;;6.97;85.53
69153;BME280;56261;51.580;4.578;2023-03-01T14:47:30;102651.06;;;7.06;85.97
69153;BME280;56261;51.580;4.578;2023-03-01T14:50:09;102641.06;;;7.10;86.02